Time;durP1;ratioP1;P1;durP2;ratioP2;P2;SDS_P1;SDS_P2;PMS_P1;PMS_P2;Temp;Humidity;BMP_temperature;BMP_pressure;BME280_temperature;BME280_humidity;BME280_pressure;Samples;Min_cycle;Max_cycle;Signal;HPM_P1;HPM_P2
2021/12/12 00:02:56;;;;;;;11.27;3.70;;;5.50;99.90;;;;;;4979679;28;20033;-74
2021/12/12 00:05:16;;;;;;;7.47;3.13;;;5.50;99.90;;;;;;4996654;28;20113;-74
2021/12/12 00:07:43;;;;;;;13.57;3.88;;;5.50;99.90;;;;;;4997058;28;20126;-74
2021/12/12 00:10:16;;;;;;;14.05;4.10;;;5.60;99.90;;;;;;4997371;28;20062;-74
2021/12/12 00:12:47;;;;;;;14.07;3.90;;;5.60;99.90;;;;;;4979676;28;20022;-74
2021/12/12 00:15:15;;;;;;;23.70;4.72;;;5.60;99.90;;;;;;4996964;28;20105;-74
2021/12/12 00:17:42;;;;;;;11.63;3.63;;;5.60;99.90;;;;;;4997081;28;20073;-76
2021/12/12 00:20:10;;;;;;;16.38;4.07;;;5.60;99.90;;;;;;4979273;28;20072;-75
2021/12/12 00:22:37;;;;;;;13.60;3.28;;;5.60;99.90;;;;;;4979283;28;20038;-75
2021/12/12 00:25:05;;;;;;;10.05;3.90;;;5.60;99.90;;;;;;4996742;28;20050;-75
2021/12/12 00:27:31;;;;;;;20.30;3.88;;;5.60;99.90;;;;;;4979134;28;20475;-75
2021/12/12 00:30:03;;;;;;;19.75;3.67;;;5.70;99.90;;;;;;4996534;28;20058;-75
2021/12/12 00:35:09;;;;;;;12.68;3.05;;;5.70;99.90;;;;;;5157495;22;20049;-73
2021/12/12 00:37:34;;;;;;;15.88;3.97;;;5.70;99.90;;;;;;5017347;28;20032;-73
2021/12/12 00:40:18;;;;;;;15.35;4.10;;;5.70;99.90;;;;;;5018338;28;20017;-73
2021/12/12 00:42:46;;;;;;;15.55;3.65;;;5.70;99.90;;;;;;5036456;28;20100;-72
2021/12/12 00:45:14;;;;;;;15.20;3.45;;;5.60;99.90;;;;;;5016336;28;20622;-72
2021/12/12 00:47:41;;;;;;;16.00;3.97;;;5.60;99.90;;;;;;5016372;28;20073;-73
2021/12/12 00:50:15;;;;;;;16.30;3.60;;;5.70;99.90;;;;;;5016466;28;20022;-72
2021/12/12 00:52:43;;;;;;;15.30;3.15;;;5.70;99.90;;;;;;5017004;28;20026;-72
2021/12/12 00:55:10;;;;;;;20.88;3.67;;;5.70;99.90;;;;;;4998611;28;20028;-73
2021/12/12 00:57:36;;;;;;;9.73;3.28;;;6.00;99.90;;;;;;5016106;28;20127;-72
2021/12/12 01:00:03;;;;;;;20.23;3.70;;;5.60;99.90;;;;;;5016010;28;20010;-72
2021/12/12 01:02:32;;;;;;;20.33;4.15;;;5.70;99.90;;;;;;5015749;28;20030;-72
2021/12/12 01:05:04;;;;;;;16.63;3.67;;;5.70;99.90;;;;;;5015839;28;20018;-72
2021/12/12 01:07:34;;;;;;;19.58;3.88;;;5.70;99.90;;;;;;4998348;28;20080;-72
2021/12/12 01:10:25;;;;;;;14.88;3.65;;;5.60;99.90;;;;;;5015762;28;20030;-72
2021/12/12 01:12:53;;;;;;;15.55;3.35;;;5.70;99.90;;;;;;4998015;28;20061;-72
2021/12/12 01:15:40;;;;;;;13.77;3.85;;;5.70;99.90;;;;;;4998409;28;20385;-71
2021/12/12 01:18:11;;;;;;;18.58;3.72;;;5.70;99.90;;;;;;5015355;28;20037;-72
2021/12/12 01:20:51;;;;;;;12.85;3.50;;;5.70;99.90;;;;;;5015803;28;20018;-72
2021/12/12 01:23:33;;;;;;;12.95;3.40;;;5.70;99.90;;;;;;4998114;28;20041;-72
2021/12/12 01:25:59;;;;;;;13.85;3.08;;;5.70;99.90;;;;;;5015534;28;20441;-72
2021/12/12 01:28:28;;;;;;;12.52;3.80;;;5.70;99.90;;;;;;5015498;28;20084;-72
2021/12/12 01:30:58;;;;;;;11.85;2.70;;;5.70;99.90;;;;;;4997681;28;20025;-73
2021/12/12 01:33:35;;;;;;;12.68;2.80;;;5.70;99.90;;;;;;4997866;28;20080;-73
2021/12/12 01:36:22;;;;;;;11.30;2.50;;;5.70;99.90;;;;;;5014947;28;20045;-73
2021/12/12 01:38:52;;;;;;;11.40;2.92;;;5.70;99.90;;;;;;5015135;28;20026;-73
2021/12/12 01:41:22;;;;;;;10.20;2.83;;;5.70;99.90;;;;;;4998103;28;20018;-73
2021/12/12 01:43:48;;;;;;;13.85;3.08;;;5.70;99.90;;;;;;5015210;28;20037;-73
2021/12/12 01:46:30;;;;;;;11.05;3.08;;;5.70;99.90;;;;;;5015227;28;20053;-73
2021/12/12 01:49:08;;;;;;;13.70;2.33;;;5.70;99.90;;;;;;5014778;28;20032;-73
2021/12/12 01:51:38;;;;;;;8.93;2.72;;;5.70;99.90;;;;;;5014844;28;20046;-73
2021/12/12 01:54:07;;;;;;;14.35;2.45;;;5.70;99.90;;;;;;5014766;28;20032;-73
2021/12/12 01:56:53;;;;;;;15.48;3.67;;;5.80;99.90;;;;;;5015021;28;20030;-73
2021/12/12 01:59:21;;;;;;;11.88;2.40;;;5.80;99.90;;;;;;4997269;28;20033;-73
2021/12/12 02:01:52;;;;;;;16.00;2.90;;;5.80;99.90;;;;;;5014725;28;20022;-73
2021/12/12 02:04:22;;;;;;;15.48;2.20;;;5.70;99.90;;;;;;5014866;28;20022;-73
2021/12/12 02:06:51;;;;;;;9.40;2.50;;;5.80;99.90;;;;;;5015421;28;20022;-73
2021/12/12 02:09:19;;;;;;;12.70;2.50;;;5.80;99.90;;;;;;5015034;28;20100;-73
2021/12/12 02:11:46;;;;;;;11.48;2.47;;;5.70;99.90;;;;;;5014691;28;20018;-73
2021/12/12 02:14:16;;;;;;;13.60;2.40;;;5.70;99.90;;;;;;5014759;28;20033;-73
2021/12/12 02:16:49;;;;;;;9.57;2.20;;;5.70;99.90;;;;;;5014752;28;20026;-73
2021/12/12 02:19:18;;;;;;;10.95;2.15;;;5.70;99.90;;;;;;5014604;28;20529;-73
2021/12/12 02:22:01;;;;;;;10.73;2.75;;;5.80;99.90;;;;;;5014688;28;20100;-73
2021/12/12 02:35:31;;;;;;;11.25;1.85;;;5.70;99.90;;;;;;5014530;28;20096;-72
2021/12/12 02:37:59;;;;;;;9.18;2.30;;;5.80;99.90;;;;;;5014175;28;20026;-73
2021/12/12 02:40:35;;;;;;;10.52;2.55;;;5.70;99.90;;;;;;5014412;28;20504;-73
2021/12/12 02:43:01;;;;;;;20.10;3.22;;;5.70;99.90;;;;;;4996663;28;20033;-73
2021/12/12 02:45:30;;;;;;;10.55;2.80;;;5.70;99.90;;;;;;5014679;28;20022;-73
2021/12/12 02:48:00;;;;;;;;;;;5.70;99.90;;;;;;5014441;28;20501;-73
2021/12/12 02:50:34;;;;;;;11.40;2.47;;;5.70;99.90;;;;;;5014277;28;19948;-73
2021/12/12 02:53:10;;;;;;;12.23;2.38;;;5.70;99.90;;;;;;5014170;28;20032;-73
2021/12/12 02:55:40;;;;;;;11.02;3.15;;;5.80;99.90;;;;;;5014216;28;20091;-73
2021/12/12 02:58:10;;;;;;;13.57;2.38;;;5.80;99.90;;;;;;4996291;28;20087;-73
2021/12/12 03:00:43;;;;;;;12.13;3.15;;;5.80;99.90;;;;;;5013870;28;20098;-73
2021/12/12 03:03:10;;;;;;;15.15;3.45;;;5.80;99.90;;;;;;4996225;28;20025;-73
2021/12/12 03:05:41;;;;;;;15.00;4.03;;;5.80;99.90;;;;;;5014258;28;20084;-72
2021/12/12 03:08:07;;;;;;;7.38;2.88;;;5.80;99.90;;;;;;4995869;28;20022;-73
2021/12/12 03:10:36;;;;;;;9.93;3.72;;;5.80;99.90;;;;;;5013690;28;20034;-73
2021/12/12 03:13:04;;;;;;;13.80;3.10;;;5.80;99.90;;;;;;5014265;28;20501;-73
2021/12/12 03:15:34;;;;;;;10.77;4.18;;;5.80;99.90;;;;;;4996078;28;20026;-72
2021/12/12 03:18:02;;;;;;;14.88;3.85;;;5.90;99.90;;;;;;5013932;28;20466;-72
2021/12/12 03:20:33;;;;;;;15.95;3.45;;;5.90;99.90;;;;;;5013652;28;20018;-72
2021/12/12 03:23:10;;;;;;;9.57;3.40;;;5.90;99.90;;;;;;5013645;28;20022;-72
2021/12/12 03:25:38;;;;;;;8.52;3.50;;;5.90;99.90;;;;;;5013599;28;20482;-72
2021/12/12 03:28:11;;;;;;;13.82;3.60;;;5.80;99.90;;;;;;5013934;28;20390;-72
2021/12/12 03:30:38;;;;;;;12.80;4.50;;;5.80;99.90;;;;;;5013611;28;20108;-72
2021/12/12 03:33:04;;;;;;;13.70;4.85;;;5.80;99.90;;;;;;4995822;28;20044;-72
2021/12/12 03:35:30;;;;;;;8.60;3.78;;;5.80;99.90;;;;;;5013415;28;20394;-72
2021/12/12 03:37:56;;;;;;;17.23;4.78;;;5.90;99.90;;;;;;5013375;28;20022;-72
2021/12/12 03:40:26;;;;;;;12.18;4.22;;;5.90;99.90;;;;;;4995717;28;20030;-73
2021/12/12 03:42:54;;;;;;;11.30;3.72;;;5.90;99.90;;;;;;5013658;28;20022;-72
2021/12/12 03:45:20;;;;;;;13.35;4.25;;;5.90;99.90;;;;;;5013417;28;20025;-72
2021/12/12 03:47:55;;;;;;;17.35;5.80;;;5.90;99.90;;;;;;5013335;28;20026;-72
2021/12/12 03:50:26;;;;;;;19.15;4.85;;;5.90;99.90;;;;;;5014161;28;20052;-72
2021/12/12 03:52:52;;;;;;;9.80;4.03;;;5.90;99.90;;;;;;5013598;28;20022;-73
2021/12/12 03:55:19;;;;;;;16.40;4.38;;;5.90;99.90;;;;;;5013107;28;20032;-73
2021/12/12 03:57:48;;;;;;;13.40;5.35;;;5.90;99.90;;;;;;5013094;28;20025;-73
2021/12/12 04:00:22;;;;;;;11.45;4.85;;;6.00;99.90;;;;;;5013633;28;20025;-72
2021/12/12 04:02:48;;;;;;;16.95;4.75;;;6.00;99.90;;;;;;5013224;28;20026;-72
2021/12/12 04:05:14;;;;;;;12.50;5.53;;;6.00;99.90;;;;;;5013312;28;20381;-72
2021/12/12 04:07:39;;;;;;;14.48;5.63;;;6.00;99.90;;;;;;5013165;28;20053;-72
2021/12/12 04:10:09;;;;;;;10.32;5.00;;;6.00;99.90;;;;;;5013307;28;20026;-72
2021/12/12 04:12:35;;;;;;;17.65;4.75;;;6.00;99.90;;;;;;4996943;28;20026;-72
2021/12/12 04:15:00;;;;;;;10.80;5.35;;;6.00;99.90;;;;;;5016603;28;20099;-72
2021/12/12 04:17:29;;;;;;;13.38;5.45;;;6.10;99.90;;;;;;5016333;28;20022;-72
2021/12/12 04:19:59;;;;;;;15.77;6.18;;;6.10;99.90;;;;;;4999307;28;20041;-72
2021/12/12 04:22:25;;;;;;;13.18;6.25;;;6.10;99.90;;;;;;5016528;28;20037;-72
2021/12/12 04:24:54;;;;;;;21.15;6.72;;;6.10;99.90;;;;;;4998997;28;20072;-72
2021/12/12 04:27:22;;;;;;;19.65;7.75;;;6.10;99.90;;;;;;5016691;28;20474;-73
2021/12/12 04:29:50;;;;;;;19.95;6.47;;;6.10;99.90;;;;;;5016369;28;20390;-72
2021/12/12 04:32:30;;;;;;;14.40;7.05;;;6.10;99.90;;;;;;5015978;28;20030;-73
2021/12/12 04:35:05;;;;;;;14.45;6.55;;;6.10;99.90;;;;;;4996552;28;20116;-72
2021/12/12 04:37:31;;;;;;;16.25;6.63;;;6.20;99.90;;;;;;4996510;28;20027;-73
2021/12/12 04:39:58;;;;;;;14.32;7.18;;;6.30;99.90;;;;;;4996679;28;20030;-72
2021/12/12 04:42:31;;;;;;;14.73;6.63;;;6.20;99.90;;;;;;4979191;28;20495;-72
2021/12/12 04:45:15;;;;;;;18.23;6.57;;;6.30;99.90;;;;;;4996422;28;20029;-73
2021/12/12 04:51:09;;;;;;;13.15;6.28;;;6.30;99.90;;;;;;5016859;28;20049;-72
2021/12/12 04:53:45;;;;;;;17.00;6.72;;;6.30;99.90;;;;;;5016049;28;20067;-72
2021/12/12 04:56:21;;;;;;;19.75;8.07;;;6.30;99.90;;;;;;5016259;28;20030;-73
2021/12/12 04:59:11;;;;;;;15.20;7.25;;;6.30;99.90;;;;;;5015890;28;20021;-72
2021/12/12 05:01:42;;;;;;;19.58;8.38;;;6.40;99.90;;;;;;4997864;28;20013;-73
2021/12/12 05:04:19;;;;;;;18.20;7.70;;;6.40;99.90;;;;;;5015417;28;20030;-73
2021/12/12 05:07:11;;;;;;;19.63;8.07;;;6.40;99.90;;;;;;4998005;28;20042;-73
2021/12/12 05:10:11;;;;;;;15.77;8.18;;;6.40;99.90;;;;;;5006384;28;20461;-73
2021/12/12 05:12:44;;;;;;;19.98;8.57;;;6.40;99.90;;;;;;4999281;28;20462;-73
2021/12/12 05:15:18;;;;;;;23.45;10.10;;;6.40;99.90;;;;;;5015577;28;20363;-73
2021/12/12 05:17:50;;;;;;;20.95;9.48;;;6.40;99.90;;;;;;4997757;28;20490;-73
2021/12/12 05:20:32;;;;;;;22.15;10.05;;;6.50;99.90;;;;;;5015666;28;20105;-73
2021/12/12 05:23:02;;;;;;;23.23;9.27;;;6.50;99.90;;;;;;4997699;28;20079;-73
2021/12/12 05:25:35;;;;;;;20.17;9.27;;;6.60;99.90;;;;;;4996917;28;20368;-74
2021/12/12 05:28:02;;;;;;;19.30;9.18;;;6.50;99.90;;;;;;5015261;28;20026;-73
2021/12/12 05:30:31;;;;;;;21.77;8.90;;;6.60;99.90;;;;;;5015322;28;20387;-73
2021/12/12 05:32:57;;;;;;;22.50;9.95;;;6.60;99.90;;;;;;4998372;28;20109;-73
2021/12/12 05:35:25;;;;;;;22.98;9.52;;;6.60;99.90;;;;;;5015086;28;20113;-73
2021/12/12 05:37:54;;;;;;;25.27;10.30;;;6.60;99.90;;;;;;5014705;28;20030;-73
2021/12/12 05:40:23;;;;;;;20.67;10.35;;;6.70;99.90;;;;;;5014977;28;20018;-73
2021/12/12 05:42:53;;;;;;;;;;;6.70;99.90;;;;;;4997376;28;20108;-72
2021/12/12 05:45:19;;;;;;;24.70;10.15;;;6.70;99.90;;;;;;5015041;28;19952;-72
2021/12/12 05:47:45;;;;;;;27.38;11.15;;;6.70;99.90;;;;;;5014851;28;20034;-73
2021/12/12 05:50:13;;;;;;;29.00;11.88;;;6.70;99.90;;;;;;4997203;28;20030;-73
2021/12/12 05:52:42;;;;;;;25.63;10.13;;;6.80;99.90;;;;;;5015323;28;20502;-72
2021/12/12 05:55:09;;;;;;;25.70;11.68;;;6.80;99.90;;;;;;4996944;28;20273;-72
2021/12/12 05:57:35;;;;;;;33.17;13.07;;;6.80;99.90;;;;;;4997249;28;20026;-72
2021/12/12 06:00:09;;;;;;;28.50;11.57;;;6.80;99.90;;;;;;5014595;28;20029;-73
2021/12/12 06:02:35;;;;;;;24.40;10.98;;;6.90;99.90;;;;;;5014577;28;20487;-73
2021/12/12 06:05:02;;;;;;;25.25;12.05;;;6.90;99.90;;;;;;4996509;28;20034;-73
2021/12/12 06:07:29;;;;;;;31.27;11.60;;;6.90;99.90;;;;;;4996941;28;20033;-73
2021/12/12 06:09:55;;;;;;;26.42;10.88;;;6.90;99.90;;;;;;4996949;28;20367;-73
2021/12/12 06:12:22;;;;;;;25.75;10.95;;;6.90;99.90;;;;;;5014788;28;20467;-73
2021/12/12 06:14:48;;;;;;;28.38;11.55;;;7.00;99.90;;;;;;4996978;28;20076;-72
2021/12/12 06:17:17;;;;;;;25.40;11.20;;;7.00;99.90;;;;;;4996550;28;20033;-73
2021/12/12 06:19:47;;;;;;;26.83;10.55;;;7.00;99.90;;;;;;4977321;28;20029;-72
2021/12/12 06:22:14;;;;;;;24.92;10.73;;;7.00;99.90;;;;;;4994706;28;20157;-72
2021/12/12 06:24:40;;;;;;;23.75;10.73;;;7.10;99.90;;;;;;4994677;28;20026;-72
2021/12/12 06:27:16;;;;;;;29.48;10.77;;;7.10;99.90;;;;;;4977408;28;20121;-73
2021/12/12 06:29:44;;;;;;;24.45;10.70;;;7.10;99.90;;;;;;4995179;28;20490;-73
2021/12/12 06:32:10;;;;;;;24.27;9.77;;;7.10;99.90;;;;;;4994788;28;20506;-73
2021/12/12 06:34:36;;;;;;;29.85;10.93;;;7.10;99.90;;;;;;5007187;28;20034;-72
2021/12/12 06:37:02;;;;;;;34.03;12.15;;;7.10;99.90;;;;;;5014155;28;20026;-73
2021/12/12 06:39:29;;;;;;;31.67;11.80;;;7.10;99.90;;;;;;5014499;28;20501;-73
2021/12/12 06:41:55;;;;;;;33.30;12.60;;;7.10;99.90;;;;;;5013998;28;20105;-73
2021/12/12 06:44:20;;;;;;;34.25;13.35;;;7.10;99.90;;;;;;5013586;28;20061;-72
2021/12/12 06:46:47;;;;;;;30.73;11.93;;;7.20;99.90;;;;;;5013893;28;20030;-72
2021/12/12 06:49:15;;;;;;;31.80;12.85;;;7.20;99.90;;;;;;5014065;28;20025;-72
2021/12/12 06:51:48;;;;;;;30.25;11.90;;;7.20;99.90;;;;;;5014141;28;20148;-72
2021/12/12 06:54:16;;;;;;;34.67;13.30;;;7.30;99.90;;;;;;5014122;28;20034;-72
2021/12/12 06:56:42;;;;;;;34.67;14.10;;;7.30;99.90;;;;;;5013793;28;20390;-72
2021/12/12 06:59:08;;;;;;;37.70;13.85;;;7.40;99.90;;;;;;5013793;28;20026;-72
2021/12/12 07:01:35;;;;;;;35.78;14.18;;;7.40;99.90;;;;;;5014207;28;20397;-73
2021/12/12 07:04:05;;;;;;;39.90;13.38;;;7.50;99.90;;;;;;5013852;28;20442;-73
2021/12/12 07:06:31;;;;;;;37.50;13.60;;;7.50;99.90;;;;;;5014456;28;20048;-73
2021/12/12 07:08:59;;;;;;;37.83;12.02;;;7.50;99.90;;;;;;4996400;28;20022;-73
2021/12/12 07:11:27;;;;;;;39.28;13.85;;;7.50;99.90;;;;;;4996225;28;20191;-73
2021/12/12 07:13:53;;;;;;;36.13;11.73;;;7.50;99.90;;;;;;5013823;28;20429;-73
2021/12/12 07:16:20;;;;;;;42.78;14.32;;;7.60;99.90;;;;;;5013893;28;20029;-73
2021/12/12 07:18:47;;;;;;;41.17;13.90;;;7.60;99.90;;;;;;5013903;28;20037;-73
2021/12/12 07:21:14;;;;;;;51.30;15.63;;;7.60;99.90;;;;;;5013297;28;20026;-73
2021/12/12 07:23:42;;;;;;;42.70;14.55;;;7.70;99.90;;;;;;5014007;28;20057;-73
2021/12/12 07:26:11;;;;;;;41.60;14.20;;;7.70;99.90;;;;;;4996143;28;20033;-73
2021/12/12 07:28:37;;;;;;;44.42;13.27;;;7.60;99.90;;;;;;4996144;28;20026;-73
2021/12/12 07:31:16;;;;;;;42.28;13.77;;;7.70;99.90;;;;;;5013551;28;20037;-73
2021/12/12 07:33:44;;;;;;;55.58;15.27;;;7.70;99.90;;;;;;5013715;28;20047;-73
2021/12/12 07:36:11;;;;;;;39.15;14.50;;;7.80;99.90;;;;;;5013640;28;20112;-73
2021/12/12 07:38:41;;;;;;;42.05;14.50;;;7.80;99.90;;;;;;5013134;28;20066;-72
2021/12/12 07:41:06;;;;;;;47.08;14.07;;;7.80;99.90;;;;;;4995643;28;20125;-72
2021/12/12 07:43:33;;;;;;;43.70;13.20;;;7.80;99.90;;;;;;5013950;28;20045;-72
2021/12/12 07:46:00;;;;;;;39.17;11.77;;;7.90;99.90;;;;;;5013512;28;20100;-73
2021/12/12 07:48:25;;;;;;;35.35;10.90;;;7.90;99.90;;;;;;5016422;28;20026;-73
2021/12/12 07:50:53;;;;;;;41.92;13.27;;;7.90;99.90;;;;;;4999520;28;20433;-73
2021/12/12 07:53:19;;;;;;;33.67;10.95;;;7.90;99.90;;;;;;4999680;28;20030;-72
2021/12/12 07:55:47;;;;;;;37.47;13.20;;;7.90;99.90;;;;;;4999853;28;20057;-72
2021/12/12 07:58:16;;;;;;;48.10;15.43;;;7.90;99.90;;;;;;5017001;28;20022;-72
2021/12/12 08:00:45;;;;;;;53.80;12.05;;;8.00;99.90;;;;;;5017531;28;20018;-73
2021/12/12 08:03:13;;;;;;;44.47;13.25;;;7.90;99.90;;;;;;5016654;28;20117;-73
2021/12/12 08:05:39;;;;;;;42.95;13.18;;;7.90;99.90;;;;;;5017053;28;20037;-76
2021/12/12 08:08:08;;;;;;;45.00;13.35;;;8.00;99.90;;;;;;4999346;28;20026;-76
2021/12/12 08:10:36;;;;;;;49.40;11.80;;;8.10;99.90;;;;;;5017317;28;20025;-76
2021/12/12 08:13:01;;;;;;;39.95;13.27;;;8.10;99.90;;;;;;5017910;28;20026;-76
2021/12/12 08:15:29;;;;;;;48.55;13.80;;;8.10;99.90;;;;;;5016798;28;20401;-76
2021/12/12 08:17:57;;;;;;;49.90;13.80;;;8.10;99.90;;;;;;4999145;28;20029;-76
2021/12/12 08:20:25;;;;;;;51.40;13.48;;;8.10;99.90;;;;;;5016222;28;20025;-76
2021/12/12 08:22:51;;;;;;;54.87;14.03;;;8.10;99.90;;;;;;5016820;28;20509;-76
2021/12/12 08:25:18;;;;;;;58.05;15.48;;;8.10;99.90;;;;;;5016828;28;20352;-76
2021/12/12 08:27:44;;;;;;;53.25;14.85;;;8.20;99.90;;;;;;5016639;28;20036;-76
2021/12/12 08:30:13;;;;;;;52.75;15.30;;;8.20;99.90;;;;;;5015244;28;20030;-75
2021/12/12 08:32:39;;;;;;;51.80;14.63;;;8.20;99.90;;;;;;5016741;28;20038;-75
2021/12/12 08:35:11;;;;;;;46.10;14.50;;;8.20;99.90;;;;;;5016523;28;20034;-75
2021/12/12 08:37:38;;;;;;;38.50;11.02;;;8.10;99.90;;;;;;5017176;28;20088;-75
2021/12/12 08:40:05;;;;;;;47.33;12.55;;;8.20;99.90;;;;;;5016260;28;20045;-75
2021/12/12 08:42:31;;;;;;;44.75;14.25;;;8.20;99.90;;;;;;5016156;28;20029;-75
2021/12/12 08:44:59;;;;;;;52.92;13.15;;;8.30;99.90;;;;;;5016110;28;20033;-75
2021/12/12 08:47:25;;;;;;;49.65;14.32;;;8.30;99.90;;;;;;5016436;28;20475;-75
2021/12/12 08:49:52;;;;;;;39.67;12.50;;;8.30;99.90;;;;;;5016303;28;20490;-74
2021/12/12 08:52:26;;;;;;;46.13;12.32;;;8.30;99.90;;;;;;5016831;28;20149;-75
2021/12/12 08:54:53;;;;;;;45.15;12.90;;;8.40;99.90;;;;;;5016717;28;20498;-76
2021/12/12 08:57:39;;;;;;;39.75;12.48;;;8.40;99.90;;;;;;4999027;28;20553;-76
2021/12/12 09:00:10;;;;;;;44.55;13.00;;;8.40;99.90;;;;;;5011995;28;20084;-75
2021/12/12 09:02:37;;;;;;;55.85;14.43;;;8.50;99.90;;;;;;5016314;28;20029;-73
2021/12/12 09:05:09;;;;;;;40.85;11.93;;;8.50;99.90;;;;;;4998110;28;20033;-75
2021/12/12 09:07:44;;;;;;;32.55;8.65;;;8.50;99.90;;;;;;5016897;28;20034;-75
2021/12/12 09:10:13;;;;;;;54.08;14.68;;;8.50;99.90;;;;;;4979328;28;20055;-76
2021/12/12 09:12:45;;;;;;;41.42;11.90;;;8.50;99.90;;;;;;4996705;28;20045;-76
2021/12/12 09:15:16;;;;;;;41.67;12.13;;;8.50;99.90;;;;;;4980055;28;20025;-76
2021/12/12 09:17:46;;;;;;;45.90;12.65;;;8.50;99.90;;;;;;4997030;28;20034;-77
2021/12/12 09:20:21;;;;;;;48.55;12.05;;;8.60;99.90;;;;;;4996996;28;20011;-77
2021/12/12 09:23:01;;;;;;;43.40;13.07;;;8.60;99.90;;;;;;4979398;28;20022;-77
2021/12/12 09:25:42;;;;;;;33.10;10.88;;;8.60;99.90;;;;;;4996233;28;20029;-77
2021/12/12 09:28:26;;;;;;;41.33;12.27;;;8.60;99.90;;;;;;4984742;28;20530;-76
2021/12/12 09:30:52;;;;;;;43.63;11.30;;;8.60;99.90;;;;;;4996880;28;20475;-76
2021/12/12 09:33:27;;;;;;;40.50;12.02;;;8.70;99.90;;;;;;5015029;28;20125;-76
2021/12/12 09:36:03;;;;;;;39.17;10.50;;;8.70;99.90;;;;;;5015619;28;20026;-77
2021/12/12 09:38:47;;;;;;;34.00;10.70;;;8.70;99.90;;;;;;4998291;28;20406;-77
2021/12/12 09:41:23;;;;;;;32.05;10.05;;;8.70;99.90;;;;;;5015919;28;20029;-76
2021/12/12 09:44:22;;;;;;;33.50;11.23;;;8.70;99.90;;;;;;5015383;28;20022;-76
2021/12/12 09:47:28;;;;;;;35.80;11.35;;;8.80;99.90;;;;;;5015032;28;20049;-76
2021/12/12 09:53:27;;;;;;;30.98;11.10;;;8.80;99.90;;;;;;5014840;28;20508;-76
2021/12/12 09:56:01;;;;;;;26.70;8.27;;;8.80;99.90;;;;;;5015339;28;20026;-77
2021/12/12 09:58:54;;;;;;;27.95;9.27;;;8.90;99.90;;;;;;5015668;28;20022;-76
2021/12/12 10:01:28;;;;;;;32.13;8.00;;;8.90;99.90;;;;;;5015266;28;20026;-75
2021/12/12 10:04:16;;;;;;;20.50;8.07;;;8.90;99.90;;;;;;4997479;28;20057;-74
2021/12/12 10:06:51;;;;;;;28.25;8.43;;;8.90;99.90;;;;;;5005942;28;20021;-74
2021/12/12 10:09:29;;;;;;;24.75;7.78;;;8.90;99.90;;;;;;4994892;28;20022;-74
2021/12/12 10:12:18;;;;;;;25.70;9.75;;;8.90;99.90;;;;;;5002781;28;20441;-74
2021/12/12 10:14:47;;;;;;;;;;;8.90;99.90;;;;;;5013406;28;20058;-74
2021/12/12 10:17:34;;;;;;;;;;;9.00;99.90;;;;;;5013952;28;20385;-74
2021/12/12 10:20:08;;;;;;;17.70;7.00;;;9.00;99.90;;;;;;5008471;28;19931;-72
2021/12/12 10:23:04;;;;;;;20.70;7.80;;;9.00;99.90;;;;;;5014409;28;20431;-74
2021/12/12 10:25:44;;;;;;;20.17;6.72;;;9.00;99.90;;;;;;5013015;28;20061;-75
2021/12/12 10:28:27;;;;;;;19.50;7.10;;;9.00;99.90;;;;;;5013896;28;20033;-75
2021/12/12 10:31:29;;;;;;;23.30;8.63;;;9.00;99.90;;;;;;5014638;28;20018;-75
2021/12/12 10:33:57;;;;;;;21.05;6.97;;;9.10;99.90;;;;;;5013623;28;20025;-76
2021/12/12 10:36:35;;;;;;;19.45;6.72;;;9.10;99.90;;;;;;5009188;28;20030;-75
2021/12/12 10:39:06;;;;;;;19.15;8.30;;;9.10;99.90;;;;;;5013952;28;20076;-73
2021/12/12 10:41:40;;;;;;;15.60;6.45;;;9.10;99.90;;;;;;5014471;28;20022;-73
2021/12/12 10:44:18;;;;;;;17.38;6.70;;;9.10;99.90;;;;;;5014474;28;20025;-73
2021/12/12 10:47:23;;;;;;;21.75;6.43;;;9.10;99.90;;;;;;5014713;28;20109;-72
2021/12/12 10:50:18;;;;;;;12.40;6.03;;;9.20;99.90;;;;;;5012355;28;20024;-72
2021/12/12 10:53:08;;;;;;;13.88;6.07;;;9.20;99.90;;;;;;5009197;28;20387;-73
2021/12/12 10:55:56;;;;;;;16.75;6.00;;;9.20;99.90;;;;;;5004253;28;20030;-72
2021/12/12 10:58:43;;;;;;;14.23;5.55;;;9.20;99.90;;;;;;4995701;28;20045;-72
2021/12/12 11:01:13;;;;;;;18.73;5.97;;;9.20;99.90;;;;;;5013955;28;20032;-72
2021/12/12 11:03:57;;;;;;;13.85;5.93;;;9.30;99.90;;;;;;5013145;28;20026;-73
2021/12/12 11:06:36;;;;;;;13.93;5.88;;;9.40;99.90;;;;;;4992752;28;20034;-72
2021/12/12 11:09:07;;;;;;;18.48;6.38;;;9.40;99.90;;;;;;5012035;28;20030;-72
2021/12/12 11:11:42;;;;;;;14.77;5.82;;;9.40;99.90;;;;;;5013685;28;20478;-72
2021/12/12 11:14:14;;;;;;;13.25;5.72;;;9.40;99.90;;;;;;4994145;28;20069;-72
2021/12/12 11:17:01;;;;;;;16.05;6.15;;;9.40;99.90;;;;;;5012856;28;20079;-72
2021/12/12 11:19:49;;;;;;;14.88;6.07;;;9.40;99.90;;;;;;5010741;28;20105;-72
2021/12/12 11:22:26;;;;;;;12.23;5.38;;;9.40;99.90;;;;;;5012341;28;20029;-73
2021/12/12 11:25:02;;;;;;;11.40;5.53;;;9.50;99.90;;;;;;5019384;28;20021;-72
2021/12/12 11:27:37;;;;;;;16.00;5.78;;;9.50;99.90;;;;;;5017591;28;20034;-72
2021/12/12 11:30:28;;;;;;;18.27;6.90;;;9.50;99.90;;;;;;5014665;28;20034;-73
2021/12/12 11:32:56;;;;;;;16.08;6.20;;;9.50;99.90;;;;;;4970053;28;20076;-73
2021/12/12 11:35:24;;;;;;;14.85;5.93;;;9.50;99.90;;;;;;5016921;28;20030;-73
2021/12/12 11:37:51;;;;;;;18.83;6.47;;;9.50;99.90;;;;;;4999886;28;20136;-73
2021/12/12 11:40:31;;;;;;;13.85;4.80;;;9.50;99.90;;;;;;4999100;28;20026;-73
2021/12/12 11:43:26;;;;;;;11.18;4.13;;;9.60;99.90;;;;;;5020067;28;20025;-73
2021/12/12 11:46:03;;;;;;;12.60;4.65;;;9.60;99.90;;;;;;4987712;28;20029;-73
2021/12/12 11:49:00;;;;;;;10.50;4.68;;;9.60;99.90;;;;;;5001833;28;20141;-73
2021/12/12 11:51:44;;;;;;;15.25;5.28;;;9.60;99.90;;;;;;5017410;28;20108;-73
2021/12/12 11:54:23;;;;;;;13.25;5.32;;;9.70;99.90;;;;;;5023375;28;20036;-73
2021/12/12 11:57:03;;;;;;;13.70;5.45;;;9.60;99.90;;;;;;4999574;28;20449;-73
2021/12/12 11:59:58;;;;;;;9.32;4.25;;;9.70;99.90;;;;;;5014585;28;20030;-73
2021/12/12 12:02:52;;;;;;;12.00;5.25;;;9.80;99.90;;;;;;5000959;28;20069;-73
2021/12/12 12:05:23;;;;;;;13.88;5.53;;;9.80;99.90;;;;;;5015713;28;20029;-73
2021/12/12 12:08:19;;;;;;;12.98;5.32;;;9.70;99.90;;;;;;4999535;28;20026;-73
2021/12/12 12:11:22;;;;;;;10.95;4.28;;;9.70;99.90;;;;;;5009051;28;20026;-73
2021/12/12 12:14:02;;;;;;;11.95;4.93;;;9.70;99.90;;;;;;4998567;28;20026;-73
2021/12/12 12:16:45;;;;;;;10.93;4.75;;;9.70;99.90;;;;;;5017826;28;20029;-73
2021/12/12 12:19:32;;;;;;;12.00;5.03;;;9.70;99.90;;;;;;5012618;28;20490;-73
2021/12/12 12:22:28;;;;;;;11.40;4.80;;;9.70;99.90;;;;;;5009029;28;20046;-73
2021/12/12 12:25:13;;;;;;;14.88;4.97;;;9.80;99.90;;;;;;5018834;28;20041;-74
2021/12/12 12:27:43;;;;;;;11.73;4.38;;;9.80;99.90;;;;;;5016417;28;20025;-74
2021/12/12 12:30:27;;;;;;;10.43;5.00;;;9.80;99.90;;;;;;5018306;28;20597;-73
2021/12/12 12:33:17;;;;;;;9.77;4.18;;;9.80;99.90;;;;;;5006261;28;20080;-74
2021/12/12 12:36:20;;;;;;;11.43;5.35;;;9.80;99.90;;;;;;5001904;28;20041;-73
2021/12/12 12:39:22;;;;;;;10.95;5.43;;;9.90;99.90;;;;;;5014757;28;20042;-73
2021/12/12 12:41:51;;;;;;;11.57;5.25;;;9.90;99.90;;;;;;5015286;28;20367;-76
2021/12/12 12:44:54;;;;;;;13.50;6.10;;;9.90;99.90;;;;;;5017127;28;20026;-76
2021/12/12 12:48:01;;;;;;;14.65;5.57;;;9.90;99.90;;;;;;5015894;28;20045;-76
2021/12/12 12:51:06;;;;;;;16.92;7.35;;;10.00;99.90;;;;;;5014840;28;20076;-77
2021/12/12 12:53:53;;;;;;;14.57;6.68;;;10.00;99.90;;;;;;4995593;28;20454;-76
2021/12/12 12:56:57;;;;;;;13.45;6.50;;;10.00;99.90;;;;;;5018106;28;20491;-76
2021/12/12 12:59:44;;;;;;;15.93;6.82;;;10.10;99.90;;;;;;4996519;28;20453;-76
2021/12/12 13:02:27;;;;;;;13.98;5.63;;;10.10;99.90;;;;;;5002248;28;20026;-76
2021/12/12 13:04:56;;;;;;;14.98;7.15;;;10.10;99.90;;;;;;5015584;28;20026;-77
2021/12/12 13:07:40;;;;;;;12.13;5.95;;;10.10;99.90;;;;;;4997756;28;20022;-76
2021/12/12 13:10:08;;;;;;;12.45;6.85;;;10.10;99.90;;;;;;5015299;28;20026;-77
2021/12/12 13:12:47;;;;;;;13.35;6.25;;;10.20;99.90;;;;;;5016831;28;20025;-76
2021/12/12 13:15:35;;;;;;;13.15;5.85;;;10.20;99.90;;;;;;5013645;28;20034;-77
2021/12/12 13:18:07;;;;;;;11.93;6.07;;;10.20;99.90;;;;;;5008103;28;20111;-76
2021/12/12 13:20:58;;;;;;;13.95;6.45;;;10.10;99.90;;;;;;4998660;28;20368;-77
2021/12/12 13:23:53;;;;;;;14.82;5.90;;;10.20;99.90;;;;;;4998508;28;20026;-77
2021/12/12 13:26:47;;;;;;;13.63;6.35;;;10.20;99.90;;;;;;4998671;28;20487;-77
2021/12/12 13:30:03;;;;;;;16.08;6.47;;;10.20;99.90;;;;;;5016166;28;20022;-77
2021/12/12 13:32:56;;;;;;;10.23;5.22;;;10.20;99.90;;;;;;5016460;28;20025;-77
2021/12/12 13:35:30;;;;;;;13.02;5.55;;;10.20;99.90;;;;;;5014381;28;20044;-76
2021/12/12 13:38:14;;;;;;;9.50;5.10;;;10.20;99.90;;;;;;5016187;28;20026;-76
2021/12/12 13:40:56;;;;;;;10.55;5.55;;;10.20;99.90;;;;;;5007102;28;20047;-76
2021/12/12 13:43:33;;;;;;;9.57;4.28;;;10.20;99.90;;;;;;5008922;28;20541;-77